sensor_id;sensor_type;location;lat;lon;timestamp;temperature;humidity
31387;DHT22;18017;50.124;8.688;2022-08-18T00:01:40;23.20;95.90
31387;DHT22;18017;50.124;8.688;2022-08-18T00:04:07;23.10;96.00
31387;DHT22;18017;50.124;8.688;2022-08-18T00:06:33;23.10;96.10
31387;DHT22;18017;50.124;8.688;2022-08-18T00:09:02;23.10;96.20
31387;DHT22;18017;50.124;8.688;2022-08-18T00:11:30;23.10;96.30
31387;DHT22;18017;50.124;8.688;2022-08-18T00:13:56;23.00;96.30
31387;DHT22;18017;50.124;8.688;2022-08-18T00:16:21;22.90;96.50
31387;DHT22;18017;50.124;8.688;2022-08-18T00:18:47;22.90;96.70
31387;DHT22;18017;50.124;8.688;2022-08-18T00:21:13;22.90;96.90
31387;DHT22;18017;50.124;8.688;2022-08-18T00:23:38;22.90;97.00
31387;DHT22;18017;50.124;8.688;2022-08-18T00:26:04;22.90;97.20
31387;DHT22;18017;50.124;8.688;2022-08-18T00:28:30;22.90;97.40
31387;DHT22;18017;50.124;8.688;2022-08-18T00:30:55;22.90;97.50
31387;DHT22;18017;50.124;8.688;2022-08-18T00:33:21;22.90;97.60
31387;DHT22;18017;50.124;8.688;2022-08-18T00:35:47;22.90;97.80
31387;DHT22;18017;50.124;8.688;2022-08-18T00:38:13;22.90;97.80
31387;DHT22;18017;50.124;8.688;2022-08-18T00:40:42;22.90;97.90
31387;DHT22;18017;50.124;8.688;2022-08-18T00:43:13;22.90;98.00
31387;DHT22;18017;50.124;8.688;2022-08-18T00:45:42;22.90;97.90
31387;DHT22;18017;50.124;8.688;2022-08-18T00:48:10;22.90;98.10
31387;DHT22;18017;50.124;8.688;2022-08-18T00:53:49;22.90;98.30
31387;DHT22;18017;50.124;8.688;2022-08-18T00:56:20;22.90;98.30
31387;DHT22;18017;50.124;8.688;2022-08-18T00:58:54;22.90;98.30
31387;DHT22;18017;50.124;8.688;2022-08-18T01:01:22;22.90;98.30
31387;DHT22;18017;50.124;8.688;2022-08-18T01:03:53;23.00;98.40
31387;DHT22;18017;50.124;8.688;2022-08-18T01:06:36;23.00;98.30
31387;DHT22;18017;50.124;8.688;2022-08-18T01:09:04;22.90;98.30
31387;DHT22;18017;50.124;8.688;2022-08-18T01:11:30;23.00;98.50
31387;DHT22;18017;50.124;8.688;2022-08-18T01:13:57;23.00;98.30
31387;DHT22;18017;50.124;8.688;2022-08-18T01:16:22;23.00;98.40
31387;DHT22;18017;50.124;8.688;2022-08-18T01:19:07;22.90;98.40
31387;DHT22;18017;50.124;8.688;2022-08-18T01:21:56;22.90;98.50
31387;DHT22;18017;50.124;8.688;2022-08-18T01:24:30;22.90;98.60
31387;DHT22;18017;50.124;8.688;2022-08-18T01:27:17;23.00;98.60
31387;DHT22;18017;50.124;8.688;2022-08-18T01:29:46;23.00;98.60
31387;DHT22;18017;50.124;8.688;2022-08-18T01:32:21;22.90;98.50
31387;DHT22;18017;50.124;8.688;2022-08-18T01:34:49;22.90;98.50
31387;DHT22;18017;50.124;8.688;2022-08-18T01:37:18;22.90;98.60
31387;DHT22;18017;50.124;8.688;2022-08-18T01:39:45;22.90;98.60
31387;DHT22;18017;50.124;8.688;2022-08-18T01:42:12;22.90;98.60
31387;DHT22;18017;50.124;8.688;2022-08-18T01:44:39;22.80;98.60
31387;DHT22;18017;50.124;8.688;2022-08-18T01:47:09;22.80;98.80
31387;DHT22;18017;50.124;8.688;2022-08-18T01:49:36;22.80;98.80
31387;DHT22;18017;50.124;8.688;2022-08-18T01:52:02;22.80;98.90
31387;DHT22;18017;50.124;8.688;2022-08-18T01:54:31;22.80;99.00
31387;DHT22;18017;50.124;8.688;2022-08-18T01:56:57;22.80;99.10
31387;DHT22;18017;50.124;8.688;2022-08-18T01:59:23;22.70;99.10
31387;DHT22;18017;50.124;8.688;2022-08-18T02:01:49;22.60;99.20
31387;DHT22;18017;50.124;8.688;2022-08-18T02:04:24;22.60;99.30
31387;DHT22;18017;50.124;8.688;2022-08-18T02:06:51;22.50;99.30
31387;DHT22;18017;50.124;8.688;2022-08-18T02:09:17;22.50;99.40
31387;DHT22;18017;50.124;8.688;2022-08-18T02:11:43;22.40;99.50
31387;DHT22;18017;50.124;8.688;2022-08-18T02:14:09;22.40;99.30
31387;DHT22;18017;50.124;8.688;2022-08-18T02:16:34;22.40;99.40
31387;DHT22;18017;50.124;8.688;2022-08-18T02:19:00;22.40;99.60
31387;DHT22;18017;50.124;8.688;2022-08-18T02:21:25;22.40;99.60
31387;DHT22;18017;50.124;8.688;2022-08-18T02:23:51;22.40;99.40
31387;DHT22;18017;50.124;8.688;2022-08-18T02:26:17;22.40;99.30
31387;DHT22;18017;50.124;8.688;2022-08-18T02:28:43;22.30;99.50
31387;DHT22;18017;50.124;8.688;2022-08-18T02:31:12;22.30;99.50
31387;DHT22;18017;50.124;8.688;2022-08-18T02:33:39;22.20;99.70
31387;DHT22;18017;50.124;8.688;2022-08-18T02:36:05;22.20;99.90
31387;DHT22;18017;50.124;8.688;2022-08-18T02:38:34;22.10;99.90
31387;DHT22;18017;50.124;8.688;2022-08-18T02:41:02;22.10;99.90
31387;DHT22;18017;50.124;8.688;2022-08-18T02:43:29;22.00;99.90
31387;DHT22;18017;50.124;8.688;2022-08-18T02:45:55;22.00;99.90
31387;DHT22;18017;50.124;8.688;2022-08-18T02:48:21;22.00;99.90
31387;DHT22;18017;50.124;8.688;2022-08-18T02:53:29;21.90;99.90
31387;DHT22;18017;50.124;8.688;2022-08-18T02:56:02;21.80;99.90
31387;DHT22;18017;50.124;8.688;2022-08-18T02:58:28;21.90;99.90
31387;DHT22;18017;50.124;8.688;2022-08-18T03:00:54;21.90;99.90
31387;DHT22;18017;50.124;8.688;2022-08-18T03:03:19;21.90;99.90
31387;DHT22;18017;50.124;8.688;2022-08-18T03:05:45;21.80;99.90
31387;DHT22;18017;50.124;8.688;2022-08-18T03:08:11;21.80;99.90
31387;DHT22;18017;50.124;8.688;2022-08-18T03:10:37;21.80;99.90
31387;DHT22;18017;50.124;8.688;2022-08-18T03:13:03;21.80;99.90
31387;DHT22;18017;50.124;8.688;2022-08-18T03:15:28;21.80;99.90
31387;DHT22;18017;50.124;8.688;2022-08-18T03:17:54;21.80;99.90
31387;DHT22;18017;50.124;8.688;2022-08-18T03:20:20;21.80;99.90
31387;DHT22;18017;50.124;8.688;2022-08-18T03:22:46;21.80;99.90
31387;DHT22;18017;50.124;8.688;2022-08-18T03:25:11;21.90;99.90
31387;DHT22;18017;50.124;8.688;2022-08-18T03:27:37;21.90;99.90
31387;DHT22;18017;50.124;8.688;2022-08-18T03:30:03;21.90;99.90
31387;DHT22;18017;50.124;8.688;2022-08-18T03:32:28;21.90;99.90
31387;DHT22;18017;50.124;8.688;2022-08-18T03:34:54;21.90;99.90
31387;DHT22;18017;50.124;8.688;2022-08-18T03:37:20;21.90;99.90
31387;DHT22;18017;50.124;8.688;2022-08-18T03:39:46;21.90;99.90
31387;DHT22;18017;50.124;8.688;2022-08-18T03:42:11;21.90;99.90
31387;DHT22;18017;50.124;8.688;2022-08-18T03:44:37;21.90;99.90
31387;DHT22;18017;50.124;8.688;2022-08-18T03:47:10;21.90;99.90
31387;DHT22;18017;50.124;8.688;2022-08-18T03:49:36;22.00;99.90
31387;DHT22;18017;50.124;8.688;2022-08-18T03:52:06;22.00;99.90
31387;DHT22;18017;50.124;8.688;2022-08-18T03:54:31;22.00;99.90
31387;DHT22;18017;50.124;8.688;2022-08-18T03:56:58;22.00;99.90
31387;DHT22;18017;50.124;8.688;2022-08-18T03:59:25;22.00;99.90
31387;DHT22;18017;50.124;8.688;2022-08-18T04:01:52;22.00;99.90
31387;DHT22;18017;50.124;8.688;2022-08-18T04:04:22;22.00;99.90
31387;DHT22;18017;50.124;8.688;2022-08-18T04:06:50;21.90;99.90
31387;DHT22;18017;50.124;8.688;2022-08-18T04:09:19;21.90;99.90
31387;DHT22;18017;50.124;8.688;2022-08-18T04:11:45;21.90;99.90
31387;DHT22;18017;50.124;8.688;2022-08-18T04:14:13;21.90;99.90
31387;DHT22;18017;50.124;8.688;2022-08-18T04:16:39;21.90;99.90
31387;DHT22;18017;50.124;8.688;2022-08-18T04:19:05;21.90;99.90
31387;DHT22;18017;50.124;8.688;2022-08-18T04:21:34;21.90;99.90
31387;DHT22;18017;50.124;8.688;2022-08-18T04:24:00;21.90;99.90
31387;DHT22;18017;50.124;8.688;2022-08-18T04:26:31;21.90;99.90
31387;DHT22;18017;50.124;8.688;2022-08-18T04:28:57;21.90;99.90
31387;DHT22;18017;50.124;8.688;2022-08-18T04:31:25;21.90;99.90
31387;DHT22;18017;50.124;8.688;2022-08-18T04:33:51;21.90;99.90
31387;DHT22;18017;50.124;8.688;2022-08-18T04:36:16;22.00;99.90
31387;DHT22;18017;50.124;8.688;2022-08-18T04:38:42;22.00;99.90
31387;DHT22;18017;50.124;8.688;2022-08-18T04:41:10;22.00;99.90
31387;DHT22;18017;50.124;8.688;2022-08-18T04:43:36;22.00;99.90
31387;DHT22;18017;50.124;8.688;2022-08-18T04:46:02;22.00;99.90
31387;DHT22;18017;50.124;8.688;2022-08-18T04:48:39;22.00;99.90
31387;DHT22;18017;50.124;8.688;2022-08-18T04:51:12;22.00;99.90
31387;DHT22;18017;50.124;8.688;2022-08-18T04:53:38;22.00;99.90
31387;DHT22;18017;50.124;8.688;2022-08-18T04:56:31;22.10;99.90
31387;DHT22;18017;50.124;8.688;2022-08-18T04:59:05;22.10;99.90
31387;DHT22;18017;50.124;8.688;2022-08-18T05:01:34;22.10;99.90
31387;DHT22;18017;50.124;8.688;2022-08-18T05:04:00;22.10;99.90
31387;DHT22;18017;50.124;8.688;2022-08-18T05:06:27;22.10;99.90
31387;DHT22;18017;50.124;8.688;2022-08-18T05:08:55;22.10;99.90
31387;DHT22;18017;50.124;8.688;2022-08-18T05:11:23;22.10;99.90
31387;DHT22;18017;50.124;8.688;2022-08-18T05:13:50;22.10;99.90
31387;DHT22;18017;50.124;8.688;2022-08-18T05:16:20;22.20;99.90
31387;DHT22;18017;50.124;8.688;2022-08-18T05:18:46;22.20;99.90
31387;DHT22;18017;50.124;8.688;2022-08-18T05:21:13;22.20;99.90
31387;DHT22;18017;50.124;8.688;2022-08-18T05:23:45;22.30;99.90
31387;DHT22;18017;50.124;8.688;2022-08-18T05:26:12;22.30;99.90
31387;DHT22;18017;50.124;8.688;2022-08-18T05:28:41;22.20;99.90
31387;DHT22;18017;50.124;8.688;2022-08-18T05:31:09;22.20;99.90
31387;DHT22;18017;50.124;8.688;2022-08-18T05:33:35;22.00;99.90
31387;DHT22;18017;50.124;8.688;2022-08-18T05:36:09;21.90;99.90
31387;DHT22;18017;50.124;8.688;2022-08-18T05:38:52;21.80;99.90
31387;DHT22;18017;50.124;8.688;2022-08-18T05:41:31;21.80;99.90
31387;DHT22;18017;50.124;8.688;2022-08-18T05:43:58;21.80;99.90
31387;DHT22;18017;50.124;8.688;2022-08-18T05:46:37;21.80;99.90
31387;DHT22;18017;50.124;8.688;2022-08-18T05:49:04;21.80;99.90
31387;DHT22;18017;50.124;8.688;2022-08-18T05:51:34;21.80;99.90
31387;DHT22;18017;50.124;8.688;2022-08-18T05:54:01;21.90;99.90
31387;DHT22;18017;50.124;8.688;2022-08-18T05:56:49;21.90;99.90
31387;DHT22;18017;50.124;8.688;2022-08-18T05:59:26;22.00;99.90
31387;DHT22;18017;50.124;8.688;2022-08-18T06:01:58;22.00;99.90
31387;DHT22;18017;50.124;8.688;2022-08-18T06:04:44;22.00;99.90
31387;DHT22;18017;50.124;8.688;2022-08-18T06:07:16;22.10;99.90
31387;DHT22;18017;50.124;8.688;2022-08-18T06:09:51;22.10;99.90
31387;DHT22;18017;50.124;8.688;2022-08-18T06:12:25;22.10;99.90
31387;DHT22;18017;50.124;8.688;2022-08-18T06:14:56;22.10;99.90
31387;DHT22;18017;50.124;8.688;2022-08-18T06:17:40;22.20;99.90
31387;DHT22;18017;50.124;8.688;2022-08-18T06:20:20;22.20;99.90
31387;DHT22;18017;50.124;8.688;2022-08-18T06:28:19;22.40;99.90
31387;DHT22;18017;50.124;8.688;2022-08-18T06:31:01;22.40;99.90
31387;DHT22;18017;50.124;8.688;2022-08-18T06:36:42;22.50;99.90
31387;DHT22;18017;50.124;8.688;2022-08-18T06:39:38;22.60;99.90
31387;DHT22;18017;50.124;8.688;2022-08-18T06:42:08;22.60;99.90
31387;DHT22;18017;50.124;8.688;2022-08-18T06:44:44;22.70;99.90
31387;DHT22;18017;50.124;8.688;2022-08-18T06:50:04;22.70;99.90
31387;DHT22;18017;50.124;8.688;2022-08-18T06:52:31;22.60;99.90
31387;DHT22;18017;50.124;8.688;2022-08-18T06:55:10;22.60;99.90
31387;DHT22;18017;50.124;8.688;2022-08-18T06:57:56;22.60;99.90
31387;DHT22;18017;50.124;8.688;2022-08-18T07:00:25;22.50;99.90
31387;DHT22;18017;50.124;8.688;2022-08-18T07:02:59;22.40;99.90
31387;DHT22;18017;50.124;8.688;2022-08-18T07:05:29;22.30;99.90
31387;DHT22;18017;50.124;8.688;2022-08-18T07:10:35;22.30;99.90
31387;DHT22;18017;50.124;8.688;2022-08-18T07:13:16;22.10;99.90
31387;DHT22;18017;50.124;8.688;2022-08-18T07:15:43;22.00;99.90
31387;DHT22;18017;50.124;8.688;2022-08-18T07:18:11;22.00;99.90
31387;DHT22;18017;50.124;8.688;2022-08-18T07:20:46;22.10;99.90
31387;DHT22;18017;50.124;8.688;2022-08-18T07:26:13;22.20;99.90
31387;DHT22;18017;50.124;8.688;2022-08-18T07:28:45;22.20;99.90
31387;DHT22;18017;50.124;8.688;2022-08-18T07:31:19;22.20;99.90
31387;DHT22;18017;50.124;8.688;2022-08-18T07:34:02;22.20;99.90
31387;DHT22;18017;50.124;8.688;2022-08-18T07:36:34;22.30;99.90
31387;DHT22;18017;50.124;8.688;2022-08-18T07:39:10;22.40;99.90
31387;DHT22;18017;50.124;8.688;2022-08-18T07:41:51;22.30;99.90
31387;DHT22;18017;50.124;8.688;2022-08-18T07:44:42;22.20;99.90
31387;DHT22;18017;50.124;8.688;2022-08-18T07:47:22;22.30;99.90
31387;DHT22;18017;50.124;8.688;2022-08-18T07:49:50;22.30;99.90
31387;DHT22;18017;50.124;8.688;2022-08-18T07:52:35;22.30;99.90
31387;DHT22;18017;50.124;8.688;2022-08-18T08:00:55;22.20;99.90
31387;DHT22;18017;50.124;8.688;2022-08-18T08:08:54;22.00;99.90
31387;DHT22;18017;50.124;8.688;2022-08-18T08:12:07;22.00;99.90
31387;DHT22;18017;50.124;8.688;2022-08-18T08:17:31;22.00;99.90
31387;DHT22;18017;50.124;8.688;2022-08-18T08:22:51;22.10;99.90
31387;DHT22;18017;50.124;8.688;2022-08-18T08:28:32;22.10;99.90
31387;DHT22;18017;50.124;8.688;2022-08-18T08:31:15;22.20;99.90
31387;DHT22;18017;50.124;8.688;2022-08-18T08:33:52;22.20;99.90
31387;DHT22;18017;50.124;8.688;2022-08-18T08:36:35;22.20;99.90
31387;DHT22;18017;50.124;8.688;2022-08-18T08:39:11;22.30;99.90
31387;DHT22;18017;50.124;8.688;2022-08-18T08:41:46;22.50;99.90
31387;DHT22;18017;50.124;8.688;2022-08-18T08:44:31;22.60;99.90
31387;DHT22;18017;50.124;8.688;2022-08-18T08:47:13;22.70;99.90
31387;DHT22;18017;50.124;8.688;2022-08-18T08:49:57;22.80;99.90
31387;DHT22;18017;50.124;8.688;2022-08-18T08:52:28;22.90;99.90
31387;DHT22;18017;50.124;8.688;2022-08-18T08:55:03;23.00;99.90
31387;DHT22;18017;50.124;8.688;2022-08-18T08:57:34;23.10;99.90
31387;DHT22;18017;50.124;8.688;2022-08-18T09:00:05;23.30;99.90
31387;DHT22;18017;50.124;8.688;2022-08-18T09:02:43;23.40;99.90
31387;DHT22;18017;50.124;8.688;2022-08-18T09:05:19;23.60;99.90
31387;DHT22;18017;50.124;8.688;2022-08-18T09:16:55;23.60;99.90
31387;DHT22;18017;50.124;8.688;2022-08-18T09:24:55;23.90;99.90
31387;DHT22;18017;50.124;8.688;2022-08-18T09:30:04;24.10;99.90
31387;DHT22;18017;50.124;8.688;2022-08-18T09:32:51;24.20;99.90
31387;DHT22;18017;50.124;8.688;2022-08-18T09:35:36;24.10;99.90
31387;DHT22;18017;50.124;8.688;2022-08-18T09:38:11;24.30;99.90
31387;DHT22;18017;50.124;8.688;2022-08-18T09:41:04;24.50;99.90
31387;DHT22;18017;50.124;8.688;2022-08-18T09:44:01;24.60;99.90
31387;DHT22;18017;50.124;8.688;2022-08-18T09:51:59;25.00;99.90
31387;DHT22;18017;50.124;8.688;2022-08-18T09:54:31;25.10;99.90
31387;DHT22;18017;50.124;8.688;2022-08-18T09:57:05;25.00;99.90
31387;DHT22;18017;50.124;8.688;2022-08-18T10:10:24;24.80;99.90
31387;DHT22;18017;50.124;8.688;2022-08-18T10:12:59;24.60;99.90
31387;DHT22;18017;50.124;8.688;2022-08-18T10:21:14;25.20;99.90
31387;DHT22;18017;50.124;8.688;2022-08-18T10:34:46;26.10;99.90
31387;DHT22;18017;50.124;8.688;2022-08-18T10:42:51;25.60;99.90
31387;DHT22;18017;50.124;8.688;2022-08-18T10:45:37;25.60;99.90
31387;DHT22;18017;50.124;8.688;2022-08-18T10:48:26;25.40;99.90
31387;DHT22;18017;50.124;8.688;2022-08-18T10:53:51;25.60;99.90
31387;DHT22;18017;50.124;8.688;2022-08-18T10:56:30;25.70;99.90
31387;DHT22;18017;50.124;8.688;2022-08-18T11:04:50;25.30;99.90
31387;DHT22;18017;50.124;8.688;2022-08-18T11:07:19;25.30;99.90
31387;DHT22;18017;50.124;8.688;2022-08-18T11:09:50;25.20;99.90
31387;DHT22;18017;50.124;8.688;2022-08-18T11:12:56;25.00;99.90
31387;DHT22;18017;50.124;8.688;2022-08-18T11:20:33;24.70;99.90
31387;DHT22;18017;50.124;8.688;2022-08-18T11:23:02;24.60;99.90
31387;DHT22;18017;50.124;8.688;2022-08-18T11:25:30;24.60;99.90
31387;DHT22;18017;50.124;8.688;2022-08-18T11:27:57;24.50;99.90
31387;DHT22;18017;50.124;8.688;2022-08-18T11:30:33;24.50;99.90
31387;DHT22;18017;50.124;8.688;2022-08-18T11:33:02;24.70;99.90
31387;DHT22;18017;50.124;8.688;2022-08-18T11:35:43;25.00;99.90
31387;DHT22;18017;50.124;8.688;2022-08-18T11:38:11;25.50;99.90
31387;DHT22;18017;50.124;8.688;2022-08-18T11:40:42;26.40;99.90
31387;DHT22;18017;50.124;8.688;2022-08-18T11:50:49;33.30;99.90
31387;DHT22;18017;50.124;8.688;2022-08-18T11:53:37;33.50;97.00
31387;DHT22;18017;50.124;8.688;2022-08-18T11:56:14;33.40;96.60
31387;DHT22;18017;50.124;8.688;2022-08-18T11:59:08;35.80;94.90
31387;DHT22;18017;50.124;8.688;2022-08-18T12:01:57;37.40;92.70
31387;DHT22;18017;50.124;8.688;2022-08-18T12:04:39;36.80;91.60
31387;DHT22;18017;50.124;8.688;2022-08-18T12:07:09;36.20;91.40
31387;DHT22;18017;50.124;8.688;2022-08-18T12:09:39;36.90;90.80
31387;DHT22;18017;50.124;8.688;2022-08-18T12:12:22;36.60;90.20
31387;DHT22;18017;50.124;8.688;2022-08-18T12:17:38;35.80;89.80
31387;DHT22;18017;50.124;8.688;2022-08-18T12:20:05;35.90;89.60
31387;DHT22;18017;50.124;8.688;2022-08-18T12:22:34;35.80;89.50
31387;DHT22;18017;50.124;8.688;2022-08-18T12:25:02;34.90;89.60
31387;DHT22;18017;50.124;8.688;2022-08-18T12:27:28;34.70;90.00
31387;DHT22;18017;50.124;8.688;2022-08-18T12:29:56;33.90;90.10
31387;DHT22;18017;50.124;8.688;2022-08-18T12:32:27;32.90;90.70
31387;DHT22;18017;50.124;8.688;2022-08-18T12:34:53;32.80;90.90
31387;DHT22;18017;50.124;8.688;2022-08-18T12:37:21;32.90;90.90
31387;DHT22;18017;50.124;8.688;2022-08-18T12:39:48;33.30;90.80
31387;DHT22;18017;50.124;8.688;2022-08-18T12:42:14;33.60;90.20
31387;DHT22;18017;50.124;8.688;2022-08-18T12:44:40;34.20;89.70
31387;DHT22;18017;50.124;8.688;2022-08-18T12:47:14;33.20;88.80
31387;DHT22;18017;50.124;8.688;2022-08-18T12:49:40;32.40;89.70
31387;DHT22;18017;50.124;8.688;2022-08-18T12:52:07;33.00;90.20
31387;DHT22;18017;50.124;8.688;2022-08-18T12:54:33;34.10;89.10
31387;DHT22;18017;50.124;8.688;2022-08-18T12:57:02;35.40;88.70
31387;DHT22;18017;50.124;8.688;2022-08-18T12:59:28;34.90;87.80
31387;DHT22;18017;50.124;8.688;2022-08-18T13:01:53;33.80;88.50
31387;DHT22;18017;50.124;8.688;2022-08-18T13:04:19;33.70;88.90
31387;DHT22;18017;50.124;8.688;2022-08-18T13:06:51;34.60;88.10
31387;DHT22;18017;50.124;8.688;2022-08-18T13:09:21;34.40;87.40
31387;DHT22;18017;50.124;8.688;2022-08-18T13:11:47;33.80;87.20
31387;DHT22;18017;50.124;8.688;2022-08-18T13:14:13;34.60;87.50
31387;DHT22;18017;50.124;8.688;2022-08-18T13:16:41;34.80;86.80
31387;DHT22;18017;50.124;8.688;2022-08-18T13:19:11;33.80;87.30
31387;DHT22;18017;50.124;8.688;2022-08-18T13:21:38;32.70;89.40
31387;DHT22;18017;50.124;8.688;2022-08-18T13:24:04;32.90;89.00
31387;DHT22;18017;50.124;8.688;2022-08-18T13:26:37;33.70;88.50
31387;DHT22;18017;50.124;8.688;2022-08-18T13:29:04;34.30;87.50
31387;DHT22;18017;50.124;8.688;2022-08-18T13:31:30;34.70;87.50
31387;DHT22;18017;50.124;8.688;2022-08-18T13:33:56;34.90;86.80
31387;DHT22;18017;50.124;8.688;2022-08-18T13:36:24;35.00;86.00
31387;DHT22;18017;50.124;8.688;2022-08-18T13:38:51;35.00;86.30
31387;DHT22;18017;50.124;8.688;2022-08-18T13:41:19;34.70;86.40
31387;DHT22;18017;50.124;8.688;2022-08-18T13:43:45;34.90;86.40
31387;DHT22;18017;50.124;8.688;2022-08-18T13:46:14;34.90;86.10
31387;DHT22;18017;50.124;8.688;2022-08-18T13:48:40;33.90;86.50
31387;DHT22;18017;50.124;8.688;2022-08-18T13:51:08;34.00;86.40
31387;DHT22;18017;50.124;8.688;2022-08-18T13:53:37;34.20;86.00
31387;DHT22;18017;50.124;8.688;2022-08-18T13:56:04;34.70;85.80
31387;DHT22;18017;50.124;8.688;2022-08-18T13:58:30;35.10;85.10
31387;DHT22;18017;50.124;8.688;2022-08-18T14:00:59;35.30;84.80
31387;DHT22;18017;50.124;8.688;2022-08-18T14:03:25;35.20;83.60
31387;DHT22;18017;50.124;8.688;2022-08-18T14:05:51;35.40;83.60
31387;DHT22;18017;50.124;8.688;2022-08-18T14:08:18;35.40;82.30
31387;DHT22;18017;50.124;8.688;2022-08-18T14:10:46;34.60;82.10
31387;DHT22;18017;50.124;8.688;2022-08-18T14:13:14;34.30;83.10
31387;DHT22;18017;50.124;8.688;2022-08-18T14:15:41;33.50;84.00
31387;DHT22;18017;50.124;8.688;2022-08-18T14:18:09;33.80;83.70
31387;DHT22;18017;50.124;8.688;2022-08-18T14:20:35;33.30;83.20
31387;DHT22;18017;50.124;8.688;2022-08-18T14:23:19;33.70;83.40
31387;DHT22;18017;50.124;8.688;2022-08-18T14:26:03;34.40;82.90
31387;DHT22;18017;50.124;8.688;2022-08-18T14:28:47;33.80;83.10
31387;DHT22;18017;50.124;8.688;2022-08-18T14:31:13;33.10;83.60
31387;DHT22;18017;50.124;8.688;2022-08-18T14:33:39;33.00;83.60
31387;DHT22;18017;50.124;8.688;2022-08-18T14:36:05;32.80;84.10
31387;DHT22;18017;50.124;8.688;2022-08-18T14:38:31;32.60;83.30
31387;DHT22;18017;50.124;8.688;2022-08-18T14:41:00;32.10;82.90
31387;DHT22;18017;50.124;8.688;2022-08-18T14:43:26;31.60;83.70
31387;DHT22;18017;50.124;8.688;2022-08-18T14:45:52;31.30;84.40
31387;DHT22;18017;50.124;8.688;2022-08-18T14:48:20;31.50;84.80
31387;DHT22;18017;50.124;8.688;2022-08-18T14:50:50;32.00;85.00
31387;DHT22;18017;50.124;8.688;2022-08-18T14:53:18;32.30;84.50
31387;DHT22;18017;50.124;8.688;2022-08-18T14:55:45;32.30;84.60
31387;DHT22;18017;50.124;8.688;2022-08-18T14:58:11;32.10;84.60
31387;DHT22;18017;50.124;8.688;2022-08-18T15:00:38;31.30;85.30
31387;DHT22;18017;50.124;8.688;2022-08-18T15:03:03;31.30;85.60
31387;DHT22;18017;50.124;8.688;2022-08-18T15:05:32;31.50;85.80
31387;DHT22;18017;50.124;8.688;2022-08-18T15:07:59;31.20;86.70
31387;DHT22;18017;50.124;8.688;2022-08-18T15:10:28;30.90;86.30
31387;DHT22;18017;50.124;8.688;2022-08-18T15:12:53;30.60;87.20
31387;DHT22;18017;50.124;8.688;2022-08-18T15:15:19;30.80;87.00
31387;DHT22;18017;50.124;8.688;2022-08-18T15:17:45;31.00;87.20
31387;DHT22;18017;50.124;8.688;2022-08-18T15:20:11;30.80;87.50
31387;DHT22;18017;50.124;8.688;2022-08-18T15:22:42;30.70;87.30
31387;DHT22;18017;50.124;8.688;2022-08-18T15:25:27;30.70;87.30
31387;DHT22;18017;50.124;8.688;2022-08-18T15:28:21;30.40;87.80
31387;DHT22;18017;50.124;8.688;2022-08-18T15:30:49;30.10;88.00
31387;DHT22;18017;50.124;8.688;2022-08-18T15:33:15;29.70;88.60
31387;DHT22;18017;50.124;8.688;2022-08-18T15:35:42;29.40;88.90
31387;DHT22;18017;50.124;8.688;2022-08-18T15:38:10;29.20;89.00
31387;DHT22;18017;50.124;8.688;2022-08-18T15:40:57;29.20;88.90
31387;DHT22;18017;50.124;8.688;2022-08-18T15:43:25;29.00;89.10
31387;DHT22;18017;50.124;8.688;2022-08-18T15:45:51;28.90;89.90
31387;DHT22;18017;50.124;8.688;2022-08-18T15:48:20;28.70;90.10
31387;DHT22;18017;50.124;8.688;2022-08-18T15:50:48;28.60;91.00
31387;DHT22;18017;50.124;8.688;2022-08-18T15:53:16;28.70;90.30
31387;DHT22;18017;50.124;8.688;2022-08-18T15:55:42;28.50;90.40
31387;DHT22;18017;50.124;8.688;2022-08-18T15:58:09;28.40;90.60
31387;DHT22;18017;50.124;8.688;2022-08-18T16:00:37;28.40;90.60
31387;DHT22;18017;50.124;8.688;2022-08-18T16:03:08;28.40;90.70
31387;DHT22;18017;50.124;8.688;2022-08-18T16:05:37;28.40;90.40
31387;DHT22;18017;50.124;8.688;2022-08-18T16:08:06;28.40;90.10
31387;DHT22;18017;50.124;8.688;2022-08-18T16:10:34;28.50;90.40
31387;DHT22;18017;50.124;8.688;2022-08-18T16:13:02;28.60;90.40
31387;DHT22;18017;50.124;8.688;2022-08-18T16:15:32;28.70;90.40
31387;DHT22;18017;50.124;8.688;2022-08-18T16:17:58;28.70;90.30
31387;DHT22;18017;50.124;8.688;2022-08-18T16:20:24;28.70;90.40
31387;DHT22;18017;50.124;8.688;2022-08-18T16:22:51;28.70;90.20
31387;DHT22;18017;50.124;8.688;2022-08-18T16:25:18;28.60;90.30
31387;DHT22;18017;50.124;8.688;2022-08-18T16:27:44;28.50;90.30
31387;DHT22;18017;50.124;8.688;2022-08-18T16:30:17;28.30;90.00
31387;DHT22;18017;50.124;8.688;2022-08-18T16:32:43;28.20;89.80
31387;DHT22;18017;50.124;8.688;2022-08-18T16:35:10;28.10;90.40
31387;DHT22;18017;50.124;8.688;2022-08-18T16:37:35;28.10;90.10
31387;DHT22;18017;50.124;8.688;2022-08-18T16:40:02;28.00;90.10
31387;DHT22;18017;50.124;8.688;2022-08-18T16:42:28;28.00;89.80
31387;DHT22;18017;50.124;8.688;2022-08-18T16:45:00;27.90;90.00
31387;DHT22;18017;50.124;8.688;2022-08-18T16:47:26;27.80;90.00
31387;DHT22;18017;50.124;8.688;2022-08-18T16:49:53;27.90;90.00
31387;DHT22;18017;50.124;8.688;2022-08-18T16:52:19;27.80;90.10
31387;DHT22;18017;50.124;8.688;2022-08-18T16:54:46;27.80;90.20
31387;DHT22;18017;50.124;8.688;2022-08-18T16:57:12;27.60;90.20
31387;DHT22;18017;50.124;8.688;2022-08-18T16:59:38;27.50;90.40
31387;DHT22;18017;50.124;8.688;2022-08-18T17:02:22;27.30;90.70
31387;DHT22;18017;50.124;8.688;2022-08-18T17:05:07;27.20;91.00
31387;DHT22;18017;50.124;8.688;2022-08-18T17:07:36;27.20;91.10
31387;DHT22;18017;50.124;8.688;2022-08-18T17:10:04;27.10;91.30
31387;DHT22;18017;50.124;8.688;2022-08-18T17:12:30;27.00;91.50
31387;DHT22;18017;50.124;8.688;2022-08-18T17:14:56;27.00;91.70
31387;DHT22;18017;50.124;8.688;2022-08-18T17:17:23;26.90;91.80
31387;DHT22;18017;50.124;8.688;2022-08-18T17:19:49;26.90;91.90
31387;DHT22;18017;50.124;8.688;2022-08-18T17:22:17;26.80;92.10
31387;DHT22;18017;50.124;8.688;2022-08-18T17:24:43;26.70;92.20
31387;DHT22;18017;50.124;8.688;2022-08-18T17:27:16;26.60;92.40
31387;DHT22;18017;50.124;8.688;2022-08-18T17:29:53;26.50;92.60
31387;DHT22;18017;50.124;8.688;2022-08-18T17:32:26;26.50;92.70
31387;DHT22;18017;50.124;8.688;2022-08-18T17:35:05;26.40;92.90
31387;DHT22;18017;50.124;8.688;2022-08-18T17:37:33;26.40;93.10
31387;DHT22;18017;50.124;8.688;2022-08-18T17:40:19;26.30;93.20
31387;DHT22;18017;50.124;8.688;2022-08-18T17:42:46;26.30;93.40
31387;DHT22;18017;50.124;8.688;2022-08-18T17:45:15;26.30;93.50
31387;DHT22;18017;50.124;8.688;2022-08-18T17:50:39;26.20;93.80
31387;DHT22;18017;50.124;8.688;2022-08-18T17:53:24;26.10;93.90
31387;DHT22;18017;50.124;8.688;2022-08-18T17:56:16;26.10;94.00
31387;DHT22;18017;50.124;8.688;2022-08-18T17:58:55;26.10;94.10